View Park, California
Current Conditions -  °F | °C
As of 11:47 AM on Friday 19 Dec 2014 (Local Time) from KCQT Reporting Station
Clear Clear  
Wind Chill: 65°   Ceiling: Unl
Heat Index: 65°   Visibility: 10mi
Dew Point: 45°   Wind: 0mph
Humidity: 48%   Direction: NA
Pressure: 30.2"   Gusts: NA
Location:  33.9885°N, 118.334°W
Report Text: KCQT 191947Z AUTO 00000KT 10SM CLR 18/07 A3020 RMK AO2 SLP226 T01830072
Loading
Personal Weather Stations






























Interactive Weather Map New forecast layout! Learn more

10-Day Weather Forecast

Advertisements
Track Severe Weather on mobile